Time;durP1;ratioP1;P1;durP2;ratioP2;P2;SDS_P1;SDS_P2;PMS_P1;PMS_P2;Temp;Humidity;BMP_temperature;BMP_pressure;BME280_temperature;BME280_humidity;BME280_pressure;Samples;Min_cycle;Max_cycle;Signal;HPM_P1;HPM_P2
2023/08/30 00:00:47;;;;;;;14.70;10.25;;;;;;;;;;5029295;28;20033;-68
2023/08/30 00:03:13;;;;;;;13.38;10.07;;;;;;;;;;5029214;28;20112;-68
2023/08/30 00:05:40;;;;;;;14.82;10.48;;;;;;;;;;5028994;28;20034;-68
2023/08/30 00:08:06;;;;;;;13.43;10.52;;;;;;;;;;5028388;28;20099;-68
2023/08/30 00:10:32;;;;;;;13.50;10.77;;;;;;;;;;5028994;28;20399;-68
2023/08/30 00:12:58;;;;;;;15.43;11.18;;;;;;;;;;5028740;28;20053;-68
2023/08/30 00:15:24;;;;;;;14.10;10.98;;;;;;;;;;5028729;28;20053;-69
2023/08/30 00:17:51;;;;;;;14.30;11.18;;;;;;;;;;5032297;28;20065;-69
2023/08/30 00:20:18;;;;;;;13.30;11.40;;;;;;;;;;5032977;28;20542;-68
2023/08/30 00:22:44;;;;;;;16.70;11.35;;;;;;;;;;5033241;28;20026;-69
2023/08/30 00:25:10;;;;;;;15.20;10.65;;;;;;;;;;5032656;28;20053;-68
2023/08/30 00:27:36;;;;;;;13.93;11.10;;;;;;;;;;5032654;28;20061;-69
2023/08/30 00:30:02;;;;;;;14.35;10.20;;;;;;;;;;5032189;28;20464;-68
2023/08/30 00:32:28;;;;;;;13.52;9.93;;;;;;;;;;5032414;28;20036;-68
2023/08/30 00:34:54;;;;;;;13.65;9.98;;;;;;;;;;5032381;28;20030;-68
2023/08/30 00:37:20;;;;;;;17.00;10.77;;;;;;;;;;5014633;28;20030;-68
2023/08/30 00:39:46;;;;;;;12.63;9.73;;;;;;;;;;5032407;28;20042;-68
2023/08/30 00:42:12;;;;;;;14.70;10.27;;;;;;;;;;5031594;28;20025;-68
2023/08/30 00:44:38;;;;;;;11.25;9.90;;;;;;;;;;5032364;28;20029;-68
2023/08/30 00:47:04;;;;;;;13.77;11.50;;;;;;;;;;5032445;28;20728;-68
2023/08/30 00:49:31;;;;;;;15.35;11.57;;;;;;;;;;5031994;28;20095;-68
2023/08/30 00:51:58;;;;;;;14.52;11.02;;;;;;;;;;5032124;28;20094;-68
2023/08/30 00:54:24;;;;;;;14.20;10.35;;;;;;;;;;5031979;28;20091;-68
2023/08/30 00:56:51;;;;;;;13.40;11.10;;;;;;;;;;5032239;28;20053;-68
2023/08/30 00:59:17;;;;;;;14.90;11.10;;;;;;;;;;5032125;28;20364;-68
2023/08/30 01:01:44;;;;;;;14.07;11.20;;;;;;;;;;5032205;28;20025;-68
2023/08/30 01:04:10;;;;;;;14.50;11.50;;;;;;;;;;5031558;28;20021;-68
2023/08/30 01:06:37;;;;;;;13.30;10.93;;;;;;;;;;5031832;28;20076;-68
2023/08/30 01:09:03;;;;;;;13.93;9.93;;;;;;;;;;5032381;28;20041;-68
2023/08/30 01:11:40;;;;;;;12.18;9.98;;;;;;;;;;5032005;28;20390;-68
2023/08/30 01:14:08;;;;;;;15.27;11.23;;;;;;;;;;5031853;28;20087;-68
2023/08/30 01:16:36;;;;;;;13.65;12.20;;;;;;;;;;5013819;28;20810;-68
2023/08/30 01:19:22;;;;;;;16.23;10.98;;;;;;;;;;5032072;28;20033;-68
2023/08/30 01:21:48;;;;;;;12.85;10.68;;;;;;;;;;5031847;28;20104;-68
2023/08/30 01:24:16;;;;;;;14.95;11.93;;;;;;;;;;5014231;28;20475;-68
2023/08/30 01:26:48;;;;;;;18.65;11.45;;;;;;;;;;5031326;28;20024;-68
2023/08/30 01:29:16;;;;;;;16.25;11.43;;;;;;;;;;5031141;28;20433;-68
2023/08/30 01:31:43;;;;;;;15.95;11.60;;;;;;;;;;5031759;28;20022;-68
2023/08/30 01:34:09;;;;;;;12.68;10.30;;;;;;;;;;5031430;28;20087;-68
2023/08/30 01:36:36;;;;;;;14.68;10.10;;;;;;;;;;5031734;28;20164;-68
2023/08/30 01:39:04;;;;;;;14.38;10.98;;;;;;;;;;5031929;28;20026;-68
2023/08/30 01:41:31;;;;;;;14.68;10.40;;;;;;;;;;5031096;28;20057;-68
2023/08/30 01:43:59;;;;;;;14.02;11.23;;;;;;;;;;5032199;28;20457;-68
2023/08/30 01:46:25;;;;;;;13.38;10.32;;;;;;;;;;5031435;28;20018;-68
2023/08/30 01:48:51;;;;;;;12.40;9.70;;;;;;;;;;5031090;28;20037;-68
2023/08/30 01:51:18;;;;;;;15.23;11.25;;;;;;;;;;5031557;28;20030;-68
2023/08/30 01:53:45;;;;;;;13.02;10.32;;;;;;;;;;5031440;28;20112;-68
2023/08/30 01:56:11;;;;;;;12.23;10.70;;;;;;;;;;5030588;28;20089;-68
2023/08/30 01:58:37;;;;;;;15.95;11.77;;;;;;;;;;5031530;28;20095;-68
2023/08/30 02:01:03;;;;;;;14.77;10.45;;;;;;;;;;5031191;28;20029;-68
2023/08/30 02:03:29;;;;;;;15.10;9.95;;;;;;;;;;5030742;28;20108;-68
2023/08/30 02:06:03;;;;;;;13.38;9.75;;;;;;;;;;5031352;28;20132;-67
2023/08/30 02:08:51;;;;;;;14.15;10.88;;;;;;;;;;5030880;28;20053;-68
2023/08/30 02:11:20;;;;;;;13.60;10.63;;;;;;;;;;5031196;28;20096;-69
2023/08/30 02:13:47;;;;;;;15.38;11.35;;;;;;;;;;5030902;28;20029;-68
2023/08/30 02:16:14;;;;;;;18.15;12.68;;;;;;;;;;5031081;28;20467;-68
2023/08/30 02:18:40;;;;;;;14.18;10.93;;;;;;;;;;5031365;28;20380;-68
2023/08/30 02:21:06;;;;;;;15.93;11.52;;;;;;;;;;5030682;28;20025;-68
2023/08/30 02:23:32;;;;;;;14.45;10.45;;;;;;;;;;5029967;28;20145;-70
2023/08/30 02:25:58;;;;;;;14.85;10.60;;;;;;;;;;5029184;28;20067;-68
2023/08/30 02:28:24;;;;;;;15.63;10.90;;;;;;;;;;5029507;28;20099;-68
2023/08/30 02:30:53;;;;;;;14.68;10.85;;;;;;;;;;5029888;28;20037;-68
2023/08/30 02:33:19;;;;;;;12.48;10.20;;;;;;;;;;5029158;28;20036;-68
2023/08/30 02:35:45;;;;;;;13.43;10.10;;;;;;;;;;5030476;28;20026;-68
2023/08/30 02:38:11;;;;;;;14.88;11.27;;;;;;;;;;5029140;28;20816;-68
2023/08/30 02:40:38;;;;;;;11.90;9.60;;;;;;;;;;5030089;28;20091;-68
2023/08/30 02:43:04;;;;;;;14.43;10.70;;;;;;;;;;5029457;28;20034;-68
2023/08/30 02:45:30;;;;;;;15.30;9.77;;;;;;;;;;5029675;28;20026;-67
2023/08/30 02:47:56;;;;;;;15.65;10.73;;;;;;;;;;5029766;28;20030;-67
2023/08/30 02:50:23;;;;;;;16.33;11.40;;;;;;;;;;5029646;28;20045;-68
2023/08/30 02:52:49;;;;;;;16.13;10.38;;;;;;;;;;5029844;28;20049;-68
2023/08/30 02:55:15;;;;;;;15.85;10.70;;;;;;;;;;5029934;28;20065;-67
2023/08/30 02:57:41;;;;;;;13.57;10.55;;;;;;;;;;5029775;28;20391;-68
2023/08/30 03:00:08;;;;;;;19.88;11.55;;;;;;;;;;5029625;28;20052;-68
2023/08/30 03:02:34;;;;;;;17.67;11.25;;;;;;;;;;5029937;28;20018;-68
2023/08/30 03:05:00;;;;;;;14.50;10.50;;;;;;;;;;5029298;28;20104;-68
2023/08/30 03:07:29;;;;;;;14.32;11.25;;;;;;;;;;5029698;28;20036;-68
2023/08/30 03:09:55;;;;;;;14.73;11.27;;;;;;;;;;5029876;28;20040;-68
2023/08/30 03:12:21;;;;;;;18.23;11.80;;;;;;;;;;5029530;28;20120;-68
2023/08/30 03:14:47;;;;;;;15.45;10.68;;;;;;;;;;5029908;28;20022;-68
2023/08/30 03:17:13;;;;;;;15.18;11.10;;;;;;;;;;5029061;28;20437;-68
2023/08/30 03:19:39;;;;;;;19.75;13.05;;;;;;;;;;5029421;28;20525;-68
2023/08/30 03:22:05;;;;;;;16.13;11.95;;;;;;;;;;5029723;28;20026;-68
2023/08/30 03:24:32;;;;;;;13.85;10.73;;;;;;;;;;5029662;28;20870;-68
2023/08/30 03:26:59;;;;;;;14.80;11.13;;;;;;;;;;5029660;28;20033;-68
2023/08/30 03:29:25;;;;;;;14.65;11.35;;;;;;;;;;5029261;28;20514;-68
2023/08/30 03:31:51;;;;;;;15.10;11.50;;;;;;;;;;5029665;28;20029;-68
2023/08/30 03:34:17;;;;;;;18.00;12.13;;;;;;;;;;5029118;28;20029;-68
2023/08/30 03:36:44;;;;;;;14.38;9.75;;;;;;;;;;5029770;28;20479;-68
2023/08/30 03:39:12;;;;;;;15.57;12.57;;;;;;;;;;5029891;28;20034;-68
2023/08/30 03:41:38;;;;;;;15.40;10.85;;;;;;;;;;5029325;28;20116;-67
2023/08/30 03:44:04;;;;;;;17.23;12.65;;;;;;;;;;5028966;28;20061;-67
2023/08/30 03:46:30;;;;;;;16.77;11.65;;;;;;;;;;5029569;28;20034;-68
2023/08/30 03:48:56;;;;;;;14.18;10.27;;;;;;;;;;5029587;28;20065;-68
2023/08/30 03:51:22;;;;;;;16.83;11.95;;;;;;;;;;5011514;28;20108;-67
2023/08/30 03:53:48;;;;;;;15.43;10.90;;;;;;;;;;5028863;28;20025;-68
2023/08/30 03:56:14;;;;;;;16.30;12.57;;;;;;;;;;5028750;28;20056;-68
2023/08/30 03:58:40;;;;;;;17.17;12.13;;;;;;;;;;5029102;28;20034;-68
2023/08/30 04:01:06;;;;;;;16.08;12.68;;;;;;;;;;5028617;28;20079;-68
2023/08/30 04:03:32;;;;;;;16.80;12.13;;;;;;;;;;5028505;28;20045;-68
2023/08/30 04:05:58;;;;;;;16.52;11.85;;;;;;;;;;5028797;28;20105;-68
2023/08/30 04:08:24;;;;;;;19.25;13.30;;;;;;;;;;5029011;28;20033;-68
2023/08/30 04:10:52;;;;;;;16.02;11.30;;;;;;;;;;5028938;28;20033;-68
2023/08/30 04:13:18;;;;;;;16.90;12.35;;;;;;;;;;5028503;28;20033;-68
2023/08/30 04:15:44;;;;;;;16.73;12.98;;;;;;;;;;5029069;28;20036;-68
2023/08/30 04:18:10;;;;;;;16.88;12.43;;;;;;;;;;5011128;28;20026;-68
2023/08/30 04:20:36;;;;;;;15.63;12.02;;;;;;;;;;5028355;28;20025;-68
2023/08/30 04:23:03;;;;;;;16.83;14.00;;;;;;;;;;5011218;28;20143;-67
2023/08/30 04:25:30;;;;;;;19.48;13.35;;;;;;;;;;5028892;28;20535;-68
2023/08/30 04:27:56;;;;;;;16.52;12.20;;;;;;;;;;5028660;28;20053;-68
2023/08/30 04:30:22;;;;;;;17.40;13.70;;;;;;;;;;5028644;28;20037;-68
2023/08/30 04:32:48;;;;;;;17.45;13.20;;;;;;;;;;5028865;28;20474;-68
2023/08/30 04:35:14;;;;;;;18.58;13.02;;;;;;;;;;5028863;28;20053;-68
2023/08/30 04:37:40;;;;;;;18.77;13.82;;;;;;;;;;5028405;28;20111;-69
2023/08/30 04:40:09;;;;;;;17.42;14.35;;;;;;;;;;5028498;28;20053;-69
2023/08/30 04:42:35;;;;;;;17.48;13.32;;;;;;;;;;5028510;28;20025;-69
2023/08/30 04:45:02;;;;;;;15.35;12.38;;;;;;;;;;5028759;28;20033;-69
2023/08/30 04:47:29;;;;;;;15.55;11.80;;;;;;;;;;5028644;28;20483;-69
2023/08/30 04:49:55;;;;;;;16.55;12.27;;;;;;;;;;5028035;28;20038;-69
2023/08/30 04:52:21;;;;;;;19.45;13.82;;;;;;;;;;5028609;28;20033;-69
2023/08/30 04:54:48;;;;;;;20.45;13.07;;;;;;;;;;5028109;28;20029;-69
2023/08/30 04:57:16;;;;;;;17.63;14.13;;;;;;;;;;5028435;28;20041;-69
2023/08/30 04:59:42;;;;;;;17.02;13.20;;;;;;;;;;5028792;28;20053;-69
2023/08/30 05:02:08;;;;;;;19.77;12.98;;;;;;;;;;5029786;28;20022;-69
2023/08/30 05:04:34;;;;;;;18.63;14.15;;;;;;;;;;5032714;28;20088;-69
2023/08/30 05:07:00;;;;;;;18.42;14.48;;;;;;;;;;5032244;28;20022;-68
2023/08/30 05:09:26;;;;;;;21.65;13.23;;;;;;;;;;5031493;28;20414;-68
2023/08/30 05:11:53;;;;;;;19.23;13.60;;;;;;;;;;5031845;28;20029;-68
2023/08/30 05:14:19;;;;;;;19.20;13.57;;;;;;;;;;5031722;28;20037;-68
2023/08/30 05:16:45;;;;;;;19.42;13.50;;;;;;;;;;5031682;28;20061;-68
2023/08/30 05:19:11;;;;;;;20.85;14.35;;;;;;;;;;5031831;28;20029;-68
2023/08/30 05:21:37;;;;;;;18.42;12.70;;;;;;;;;;5031267;28;20026;-68
2023/08/30 05:24:05;;;;;;;17.23;14.13;;;;;;;;;;5031488;28;20029;-68
2023/08/30 05:26:31;;;;;;;19.95;14.05;;;;;;;;;;5032067;28;20083;-69
2023/08/30 05:28:57;;;;;;;17.38;12.32;;;;;;;;;;5031848;28;20026;-69
2023/08/30 05:31:23;;;;;;;17.55;12.32;;;;;;;;;;5031971;28;20037;-69
2023/08/30 05:33:49;;;;;;;19.77;14.40;;;;;;;;;;5031416;28;20033;-69
2023/08/30 05:36:15;;;;;;;18.83;13.32;;;;;;;;;;5031616;28;20053;-69
2023/08/30 05:38:41;;;;;;;18.17;13.90;;;;;;;;;;5031719;28;20498;-69
2023/08/30 05:41:08;;;;;;;21.63;14.23;;;;;;;;;;5031538;28;20025;-70
2023/08/30 05:43:34;;;;;;;19.83;14.20;;;;;;;;;;5030939;28;20076;-69
2023/08/30 05:46:02;;;;;;;17.65;13.02;;;;;;;;;;5030997;28;20450;-69
2023/08/30 05:48:28;;;;;;;16.17;13.00;;;;;;;;;;5031271;28;20033;-69
2023/08/30 05:50:54;;;;;;;16.55;12.02;;;;;;;;;;5030962;28;20052;-69
2023/08/30 05:53:20;;;;;;;17.38;12.65;;;;;;;;;;5031043;28;20021;-70
2023/08/30 05:55:46;;;;;;;19.02;13.35;;;;;;;;;;5030951;28;20045;-69
2023/08/30 05:58:15;;;;;;;17.92;12.75;;;;;;;;;;5030824;28;20029;-69
2023/08/30 06:00:41;;;;;;;16.52;12.07;;;;;;;;;;5031088;28;20029;-69
2023/08/30 06:03:07;;;;;;;19.48;13.60;;;;;;;;;;5031022;28;20510;-69
2023/08/30 06:05:33;;;;;;;18.05;13.98;;;;;;;;;;5030879;28;20595;-71
2023/08/30 06:08:00;;;;;;;21.15;14.45;;;;;;;;;;5030506;28;20044;-70
2023/08/30 06:10:26;;;;;;;20.17;13.43;;;;;;;;;;5031150;28;20045;-70
2023/08/30 06:12:52;;;;;;;20.52;15.30;;;;;;;;;;5030657;28;20048;-69
2023/08/30 06:15:18;;;;;;;18.98;14.23;;;;;;;;;;5030385;28;20475;-69
2023/08/30 06:17:46;;;;;;;17.13;13.25;;;;;;;;;;5030499;28;20037;-69
2023/08/30 06:20:12;;;;;;;19.25;15.18;;;;;;;;;;5029921;28;20026;-69
2023/08/30 06:22:38;;;;;;;18.70;13.85;;;;;;;;;;5030589;28;20038;-69
2023/08/30 06:25:06;;;;;;;19.55;15.30;;;;;;;;;;5030371;28;20029;-69
2023/08/30 06:27:32;;;;;;;22.42;15.45;;;;;;;;;;5030061;28;20021;-69
2023/08/30 06:29:58;;;;;;;22.20;16.35;;;;;;;;;;5030638;28;20120;-69
2023/08/30 06:32:25;;;;;;;18.65;13.57;;;;;;;;;;5030356;28;20027;-69
2023/08/30 06:34:51;;;;;;;19.45;16.27;;;;;;;;;;5012433;28;20506;-69
2023/08/30 06:37:17;;;;;;;10.65;5.72;;;;;;;;;;5029728;28;20029;-69
2023/08/30 06:39:43;;;;;;;8.77;4.18;;;;;;;;;;5029336;28;20030;-69
2023/08/30 06:42:09;;;;;;;12.40;3.28;;;;;;;;;;5029972;28;20022;-69
2023/08/30 06:44:35;;;;;;;12.30;3.53;;;;;;;;;;5030492;28;20026;-69
2023/08/30 06:47:01;;;;;;;9.77;3.17;;;;;;;;;;5030128;28;20026;-69
2023/08/30 06:49:27;;;;;;;8.77;3.08;;;;;;;;;;5029572;28;20029;-69
2023/08/30 06:51:53;;;;;;;11.38;4.25;;;;;;;;;;5028111;28;20468;-70
2023/08/30 06:54:19;;;;;;;13.85;4.05;;;;;;;;;;5028487;28;20025;-69
2023/08/30 06:56:58;;;;;;;12.95;5.63;;;;;;;;;;5029586;28;20511;-69
2023/08/30 06:59:24;;;;;;;12.85;4.85;;;;;;;;;;5029617;28;20487;-69
2023/08/30 07:01:50;;;;;;;13.55;5.55;;;;;;;;;;5029759;28;20030;-69
2023/08/30 07:04:16;;;;;;;11.32;6.28;;;;;;;;;;5029282;28;20038;-69
2023/08/30 07:06:42;;;;;;;12.32;6.15;;;;;;;;;;5030454;28;20049;-69
2023/08/30 07:09:11;;;;;;;10.75;6.10;;;;;;;;;;5029449;28;20041;-68
2023/08/30 07:11:38;;;;;;;9.17;5.43;;;;;;;;;;5029881;28;20159;-68
2023/08/30 07:14:05;;;;;;;10.23;5.82;;;;;;;;;;5029436;28;20096;-69
2023/08/30 07:16:31;;;;;;;9.70;5.72;;;;;;;;;;5029408;28;20738;-69
2023/08/30 07:18:58;;;;;;;13.82;5.47;;;;;;;;;;5029963;28;20155;-69
2023/08/30 07:21:24;;;;;;;10.30;6.03;;;;;;;;;;5029770;28;20028;-69
2023/08/30 07:23:50;;;;;;;11.10;6.38;;;;;;;;;;5028863;28;20064;-70
2023/08/30 07:26:16;;;;;;;19.08;13.90;;;;;;;;;;5029200;28;20151;-69
2023/08/30 07:28:42;;;;;;;16.08;12.18;;;;;;;;;;5029761;28;20080;-68
2023/08/30 07:31:09;;;;;;;18.13;15.07;;;;;;;;;;5029318;28;20042;-68
2023/08/30 07:33:36;;;;;;;19.23;14.00;;;;;;;;;;5029615;28;20075;-68
2023/08/30 07:36:02;;;;;;;15.18;11.93;;;;;;;;;;5029359;28;20399;-68
2023/08/30 07:38:29;;;;;;;19.30;14.18;;;;;;;;;;5029416;28;20061;-68
2023/08/30 07:40:55;;;;;;;26.95;16.95;;;;;;;;;;5028860;28;20026;-68
2023/08/30 07:43:21;;;;;;;17.08;12.27;;;;;;;;;;5029207;28;20026;-68
2023/08/30 07:45:47;;;;;;;22.55;16.55;;;;;;;;;;5029657;28;20040;-67
2023/08/30 07:48:13;;;;;;;10.93;5.40;;;;;;;;;;5028542;28;20040;-67
2023/08/30 07:50:39;;;;;;;12.85;4.95;;;;;;;;;;5029050;28;20407;-68
2023/08/30 07:53:05;;;;;;;10.32;4.80;;;;;;;;;;5029287;28;20025;-67
2023/08/30 07:55:31;;;;;;;16.02;4.80;;;;;;;;;;5028765;28;20029;-66
2023/08/30 07:57:57;;;;;;;16.70;13.75;;;;;;;;;;5028739;28;20025;-67
2023/08/30 08:00:23;;;;;;;15.52;10.27;;;;;;;;;;5026387;28;20033;-67
2023/08/30 08:02:49;;;;;;;18.33;15.20;;;;;;;;;;5008159;28;20022;-67
2023/08/30 08:05:15;;;;;;;13.80;8.93;;;;;;;;;;5026783;28;20029;-67
2023/08/30 08:07:42;;;;;;;22.17;15.13;;;;;;;;;;5027094;28;20030;-67
2023/08/30 08:10:09;;;;;;;20.20;14.48;;;;;;;;;;5025774;28;20046;-67
2023/08/30 08:12:35;;;;;;;21.98;16.02;;;;;;;;;;5027221;28;20433;-66
2023/08/30 08:15:02;;;;;;;21.95;15.80;;;;;;;;;;5028525;28;20026;-66
2023/08/30 08:17:28;;;;;;;17.00;12.15;;;;;;;;;;5028562;28;20040;-67
2023/08/30 08:19:54;;;;;;;19.90;12.40;;;;;;;;;;5028204;28;20075;-67
2023/08/30 08:22:20;;;;;;;21.15;14.88;;;;;;;;;;5028965;28;20410;-67
2023/08/30 08:24:46;;;;;;;18.77;13.20;;;;;;;;;;5028779;28;20029;-68
2023/08/30 08:27:12;;;;;;;17.63;10.40;;;;;;;;;;5027855;28;20026;-68
2023/08/30 08:29:38;;;;;;;15.20;8.13;;;;;;;;;;5027988;28;20037;-67
2023/08/30 08:32:05;;;;;;;12.82;9.30;;;;;;;;;;5028243;28;20033;-67
2023/08/30 08:34:31;;;;;;;17.67;10.57;;;;;;;;;;5028316;28;20797;-67
2023/08/30 08:36:57;;;;;;;24.00;15.68;;;;;;;;;;5029926;28;20029;-67
2023/08/30 08:39:23;;;;;;;18.02;11.70;;;;;;;;;;5032028;28;20072;-67
2023/08/30 08:41:52;;;;;;;17.80;10.73;;;;;;;;;;5031361;28;20029;-68
2023/08/30 08:44:19;;;;;;;15.60;11.63;;;;;;;;;;5032500;28;20025;-67
2023/08/30 08:46:46;;;;;;;18.70;13.27;;;;;;;;;;5032068;28;20021;-67
2023/08/30 08:49:13;;;;;;;22.23;15.20;;;;;;;;;;5031569;28;20037;-67
2023/08/30 08:51:41;;;;;;;11.48;6.30;;;;;;;;;;5031927;28;20029;-67
2023/08/30 08:54:08;;;;;;;13.07;7.70;;;;;;;;;;5031940;28;20606;-67
2023/08/30 08:56:35;;;;;;;12.65;9.18;;;;;;;;;;5031906;28;20526;-67
2023/08/30 08:59:01;;;;;;;25.38;15.80;;;;;;;;;;5032036;28;20099;-67
2023/08/30 09:01:27;;;;;;;18.52;13.70;;;;;;;;;;5031329;28;20497;-67
2023/08/30 09:03:53;;;;;;;16.10;11.13;;;;;;;;;;5031936;28;20060;-66
2023/08/30 09:06:19;;;;;;;14.10;9.70;;;;;;;;;;5031665;28;20057;-67
2023/08/30 09:08:45;;;;;;;23.05;14.55;;;;;;;;;;5031771;28;20033;-67
2023/08/30 09:11:11;;;;;;;14.02;10.85;;;;;;;;;;5031897;28;20030;-67
2023/08/30 09:13:37;;;;;;;15.95;11.98;;;;;;;;;;5032163;28;20034;-67
2023/08/30 09:16:12;;;;;;;16.52;12.23;;;;;;;;;;5030980;28;20122;-67
2023/08/30 09:18:38;;;;;;;22.27;17.73;;;;;;;;;;5031774;28;20021;-67
2023/08/30 09:21:08;;;;;;;20.35;17.33;;;;;;;;;;5013478;28;20277;-68
2023/08/30 09:23:34;;;;;;;22.92;15.77;;;;;;;;;;5031540;28;20083;-67
2023/08/30 09:26:00;;;;;;;20.38;15.48;;;;;;;;;;5030815;28;20026;-67
2023/08/30 09:28:26;;;;;;;14.82;12.13;;;;;;;;;;5031135;28;20029;-67
2023/08/30 09:30:57;;;;;;;20.42;14.73;;;;;;;;;;5031322;28;20095;-66
2023/08/30 09:33:24;;;;;;;16.25;9.98;;;;;;;;;;5031559;28;20390;-67
2023/08/30 09:35:50;;;;;;;18.02;12.48;;;;;;;;;;5031479;28;20017;-67
2023/08/30 09:38:19;;;;;;;14.43;9.43;;;;;;;;;;5031296;28;20036;-66
2023/08/30 09:40:45;;;;;;;13.70;7.97;;;;;;;;;;5030991;28;20475;-67
2023/08/30 09:43:12;;;;;;;15.73;11.50;;;;;;;;;;5030393;28;20075;-67
2023/08/30 09:45:38;;;;;;;14.15;10.88;;;;;;;;;;5031354;28;20021;-67
2023/08/30 09:48:05;;;;;;;13.43;10.50;;;;;;;;;;5030724;28;20049;-67
2023/08/30 09:50:34;;;;;;;15.00;12.55;;;;;;;;;;5030106;28;20083;-67
2023/08/30 09:53:02;;;;;;;13.05;9.68;;;;;;;;;;5031343;28;20033;-68
2023/08/30 09:55:29;;;;;;;12.55;9.48;;;;;;;;;;5012921;28;20052;-68
2023/08/30 09:57:55;;;;;;;14.55;11.02;;;;;;;;;;5031092;28;20053;-69
2023/08/30 10:00:21;;;;;;;14.07;9.95;;;;;;;;;;5031437;28;20036;-67
2023/08/30 10:02:47;;;;;;;12.52;9.23;;;;;;;;;;5030960;28;20049;-67
2023/08/30 10:05:13;;;;;;;15.88;10.13;;;;;;;;;;5030543;28;20025;-67
2023/08/30 10:07:40;;;;;;;14.25;10.52;;;;;;;;;;5030714;28;20029;-67
2023/08/30 10:10:07;;;;;;;13.70;10.82;;;;;;;;;;5030203;28;20475;-67
2023/08/30 10:12:33;;;;;;;14.60;12.13;;;;;;;;;;5030398;28;20403;-67
2023/08/30 10:14:59;;;;;;;15.38;9.98;;;;;;;;;;5030761;28;20092;-66
2023/08/30 10:17:29;;;;;;;15.93;11.93;;;;;;;;;;5030650;28;20022;-66
2023/08/30 10:19:56;;;;;;;14.65;10.57;;;;;;;;;;5030102;28;20148;-66
2023/08/30 10:22:23;;;;;;;12.18;9.20;;;;;;;;;;5030564;28;20029;-67
2023/08/30 10:24:53;;;;;;;17.05;13.65;;;;;;;;;;5030507;28;20091;-67
2023/08/30 10:27:20;;;;;;;15.35;11.88;;;;;;;;;;5029799;28;20018;-68
2023/08/30 10:29:46;;;;;;;16.45;12.45;;;;;;;;;;5030155;28;20376;-67
2023/08/30 10:32:12;;;;;;;15.48;11.73;;;;;;;;;;5030254;28;20067;-68
2023/08/30 10:34:38;;;;;;;15.93;12.07;;;;;;;;;;5012700;28;20446;-67
2023/08/30 10:37:07;;;;;;;15.27;12.02;;;;;;;;;;5030348;28;20032;-67
2023/08/30 10:39:43;;;;;;;10.38;7.28;;;;;;;;;;5030008;28;20495;-68
2023/08/30 10:42:16;;;;;;;14.32;12.80;;;;;;;;;;5030077;28;20493;-68
2023/08/30 10:44:51;;;;;;;13.35;11.65;;;;;;;;;;5030224;28;20022;-67
2023/08/30 10:47:22;;;;;;;14.85;13.20;;;;;;;;;;5030152;28;20032;-67
2023/08/30 10:49:49;;;;;;;13.27;10.18;;;;;;;;;;5030070;28;20047;-67
2023/08/30 10:52:15;;;;;;;9.98;8.55;;;;;;;;;;5029385;28;20036;-68
2023/08/30 10:54:42;;;;;;;11.55;9.77;;;;;;;;;;5029822;28;20078;-67
2023/08/30 10:57:15;;;;;;;10.95;8.55;;;;;;;;;;5029598;28;20482;-67
2023/08/30 10:59:48;;;;;;;12.38;10.88;;;;;;;;;;5028882;28;20480;-66
2023/08/30 11:02:14;;;;;;;17.50;15.65;;;;;;;;;;5029626;28;20029;-67
2023/08/30 11:04:43;;;;;;;16.95;14.93;;;;;;;;;;5029551;28;20017;-67
2023/08/30 11:07:11;;;;;;;17.45;14.30;;;;;;;;;;5029745;28;20069;-66
2023/08/30 11:09:39;;;;;;;18.13;14.25;;;;;;;;;;5029593;28;20049;-67
2023/08/30 11:12:06;;;;;;;17.70;15.45;;;;;;;;;;5029129;28;20368;-68
2023/08/30 11:14:32;;;;;;;14.77;13.25;;;;;;;;;;5029461;28;20063;-67
2023/08/30 11:16:58;;;;;;;18.73;16.73;;;;;;;;;;5029713;28;20075;-68
2023/08/30 11:19:26;;;;;;;22.67;20.27;;;;;;;;;;5029424;28;20483;-68
2023/08/30 11:21:52;;;;;;;11.80;10.60;;;;;;;;;;5029062;28;20068;-67
2023/08/30 11:24:18;;;;;;;17.85;16.05;;;;;;;;;;5029549;28;20773;-68
2023/08/30 11:26:44;;;;;;;20.77;18.77;;;;;;;;;;5029313;28;20483;-68
2023/08/30 11:29:10;;;;;;;18.65;16.83;;;;;;;;;;5029641;28;20060;-67
2023/08/30 11:31:36;;;;;;;18.38;16.45;;;;;;;;;;5028986;28;20057;-67
2023/08/30 11:34:03;;;;;;;16.90;15.20;;;;;;;;;;5028856;28;20160;-68
2023/08/30 11:36:30;;;;;;;17.67;15.88;;;;;;;;;;5028866;28;20039;-68
2023/08/30 11:38:57;;;;;;;16.67;14.88;;;;;;;;;;5029273;28;20079;-68
2023/08/30 11:41:23;;;;;;;12.45;11.20;;;;;;;;;;5028953;28;20387;-68
2023/08/30 11:43:50;;;;;;;12.48;8.73;;;;;;;;;;5028907;28;20026;-67
2023/08/30 11:46:17;;;;;;;9.52;8.48;;;;;;;;;;5028181;28;20055;-68
2023/08/30 11:48:43;;;;;;;12.93;8.68;;;;;;;;;;5029154;28;20040;-69
2023/08/30 11:51:10;;;;;;;9.52;7.72;;;;;;;;;;5028735;28;20198;-68
2023/08/30 11:53:36;;;;;;;9.75;6.85;;;;;;;;;;5029107;28;20037;-69
2023/08/30 11:56:03;;;;;;;6.57;5.32;;;;;;;;;;5028615;28;20032;-69
2023/08/30 11:58:33;;;;;;;8.10;5.70;;;;;;;;;;5028378;28;20029;-69
2023/08/30 12:00:59;;;;;;;8.73;4.95;;;;;;;;;;5028665;28;20089;-70
2023/08/30 12:03:27;;;;;;;6.85;4.28;;;;;;;;;;5028915;28;20072;-69
2023/08/30 12:05:53;;;;;;;9.68;4.80;;;;;;;;;;5029110;28;20026;-70
2023/08/30 12:08:19;;;;;;;9.63;5.07;;;;;;;;;;5028357;28;20061;-68
2023/08/30 12:10:46;;;;;;;7.35;3.22;;;;;;;;;;5030464;28;20041;-69
2023/08/30 12:13:22;;;;;;;9.13;4.28;;;;;;;;;;5035473;28;20060;-69
2023/08/30 12:15:48;;;;;;;7.72;4.43;;;;;;;;;;5035273;28;20433;-69
2023/08/30 12:18:14;;;;;;;10.60;4.78;;;;;;;;;;5034957;28;20021;-69
2023/08/30 12:20:51;;;;;;;9.18;4.25;;;;;;;;;;5035069;28;20057;-69
2023/08/30 12:23:24;;;;;;;7.70;3.50;;;;;;;;;;5034893;28;20037;-69
2023/08/30 12:26:05;;;;;;;5.68;2.85;;;;;;;;;;5034998;28;20083;-68
2023/08/30 12:28:32;;;;;;;10.50;3.58;;;;;;;;;;5035027;28;20076;-69
2023/08/30 12:30:58;;;;;;;10.50;3.20;;;;;;;;;;5035096;28;20029;-69
2023/08/30 12:33:28;;;;;;;11.00;3.25;;;;;;;;;;5034686;28;20524;-69
2023/08/30 12:35:54;;;;;;;6.43;2.45;;;;;;;;;;5035087;28;20092;-70
2023/08/30 12:38:20;;;;;;;7.80;3.15;;;;;;;;;;5034855;28;20052;-71
2023/08/30 12:40:51;;;;;;;8.18;2.60;;;;;;;;;;5034787;28;20040;-69
2023/08/30 12:43:17;;;;;;;13.77;3.10;;;;;;;;;;5035125;28;20074;-68
2023/08/30 12:45:43;;;;;;;7.03;2.65;;;;;;;;;;5034720;28;20036;-69
2023/08/30 12:48:10;;;;;;;6.85;2.42;;;;;;;;;;5034560;28;20029;-68
2023/08/30 12:50:36;;;;;;;8.48;2.70;;;;;;;;;;5034636;28;20487;-68
2023/08/30 12:53:03;;;;;;;8.20;2.70;;;;;;;;;;5017268;28;20057;-69
2023/08/30 12:55:30;;;;;;;9.60;3.25;;;;;;;;;;5034033;28;20376;-69
2023/08/30 12:57:56;;;;;;;9.35;2.92;;;;;;;;;;5034711;28;20095;-70
2023/08/30 13:00:22;;;;;;;12.02;3.15;;;;;;;;;;5034640;28;20380;-68
2023/08/30 13:02:48;;;;;;;7.43;2.72;;;;;;;;;;5035009;28;20033;-68
2023/08/30 13:05:14;;;;;;;8.73;3.47;;;;;;;;;;5034618;28;20049;-69
2023/08/30 13:07:40;;;;;;;9.40;3.22;;;;;;;;;;5034677;28;20025;-68
2023/08/30 13:10:07;;;;;;;9.95;2.78;;;;;;;;;;5034771;28;20033;-68
2023/08/30 13:12:33;;;;;;;9.70;3.45;;;;;;;;;;5034817;28;20852;-68
2023/08/30 13:14:59;;;;;;;10.23;2.60;;;;;;;;;;5034690;28;20390;-69
2023/08/30 13:17:25;;;;;;;9.52;2.35;;;;;;;;;;5034098;28;20032;-68
2023/08/30 13:19:51;;;;;;;7.40;2.72;;;;;;;;;;5034770;28;20032;-69
2023/08/30 13:22:17;;;;;;;8.00;2.20;;;;;;;;;;5033617;28;20516;-70
2023/08/30 13:24:44;;;;;;;8.50;2.67;;;;;;;;;;5031658;28;20033;-68
2023/08/30 13:27:10;;;;;;;9.77;2.58;;;;;;;;;;5031396;28;20076;-68
2023/08/30 13:29:36;;;;;;;9.05;2.97;;;;;;;;;;5031070;28;20040;-70
2023/08/30 13:32:03;;;;;;;11.65;2.67;;;;;;;;;;5031447;28;20451;-70
2023/08/30 13:34:29;;;;;;;7.53;2.00;;;;;;;;;;5031200;28;20487;-70
2023/08/30 13:36:55;;;;;;;8.80;3.10;;;;;;;;;;5031437;28;20422;-69
2023/08/30 13:39:21;;;;;;;7.85;2.88;;;;;;;;;;5030662;28;20038;-68
2023/08/30 13:41:47;;;;;;;10.25;2.67;;;;;;;;;;5030923;28;20052;-68
2023/08/30 13:44:14;;;;;;;9.88;2.78;;;;;;;;;;5031009;28;20168;-69
2023/08/30 13:46:40;;;;;;;9.27;2.80;;;;;;;;;;5031371;28;20029;-68
2023/08/30 13:49:06;;;;;;;10.88;2.90;;;;;;;;;;5013409;28;20072;-68
2023/08/30 13:51:32;;;;;;;11.98;3.08;;;;;;;;;;5030669;28;20021;-69
2023/08/30 13:53:58;;;;;;;12.43;2.42;;;;;;;;;;5031208;28;20028;-68
2023/08/30 13:56:25;;;;;;;13.93;2.72;;;;;;;;;;5030462;28;20045;-69
2023/08/30 13:58:51;;;;;;;8.38;2.10;;;;;;;;;;5030601;28;20025;-69
2023/08/30 14:01:17;;;;;;;9.30;2.88;;;;;;;;;;5030688;28;20116;-68
2023/08/30 14:03:43;;;;;;;10.48;2.80;;;;;;;;;;5030762;28;20033;-68
2023/08/30 14:06:09;;;;;;;7.53;2.08;;;;;;;;;;5031046;28;20026;-67
2023/08/30 14:08:36;;;;;;;7.30;2.17;;;;;;;;;;5030638;28;20029;-68
2023/08/30 14:11:03;;;;;;;9.13;2.38;;;;;;;;;;5030689;28;20037;-68
2023/08/30 14:13:32;;;;;;;6.35;1.90;;;;;;;;;;5030595;28;20036;-68
2023/08/30 14:15:59;;;;;;;9.25;2.67;;;;;;;;;;5030597;28;20466;-68
2023/08/30 14:18:25;;;;;;;7.57;2.53;;;;;;;;;;5012893;28;20013;-68
2023/08/30 14:20:51;;;;;;;8.30;2.47;;;;;;;;;;5030406;28;20025;-68